createdAt,value
2022-11-26T00:02:27.147Z,69.60
2022-11-26T00:04:54.869Z,75.25
2022-11-26T00:07:29.378Z,65.28
2022-11-26T00:09:56.834Z,76.78
2022-11-26T00:12:25.923Z,66.40
2022-11-26T00:14:52.811Z,74.28
2022-11-26T00:17:19.851Z,78.00
2022-11-26T00:19:46.948Z,86.40
2022-11-26T00:22:29.509Z,77.22
2022-11-26T00:24:56.540Z,82.88
2022-11-26T00:27:27.751Z,67.25
2022-11-26T00:29:54.733Z,81.60
2022-11-26T00:32:26.180Z,65.40
2022-11-26T00:34:53.351Z,77.57
2022-11-26T00:37:28.516Z,74.70
2022-11-26T00:39:56.127Z,79.22
2022-11-26T00:42:22.566Z,76.65
2022-11-26T00:44:49.091Z,77.00
2022-11-26T00:47:15.531Z,77.47
2022-11-26T00:49:42.027Z,75.85
2022-11-26T00:52:29.677Z,77.38
2022-11-26T00:54:56.148Z,70.57
2022-11-26T00:57:22.677Z,81.13
2022-11-26T00:59:49.077Z,78.53
2022-11-26T01:02:15.617Z,79.70
2022-11-26T01:04:42.156Z,78.93
2022-11-26T01:07:10.484Z,79.75
2022-11-26T01:09:37.069Z,83.82
2022-11-26T01:12:03.836Z,72.28
2022-11-26T01:14:30.332Z,78.85
2022-11-26T01:16:57.186Z,75.93
2022-11-26T01:19:23.712Z,80.93
2022-11-26T01:21:50.120Z,77.60
2022-11-26T01:24:16.586Z,84.85
2022-11-26T01:26:44.298Z,77.30
2022-11-26T01:29:18.060Z,81.35
2022-11-26T01:31:44.782Z,78.85
2022-11-26T01:34:11.698Z,85.63
2022-11-26T01:36:39.717Z,79.28
2022-11-26T01:39:19.215Z,81.05
2022-11-26T01:42:02.765Z,88.53
2022-11-26T01:44:32.339Z,86.32
2022-11-26T01:46:59.568Z,86.28
2022-11-26T01:49:32.210Z,80.15
2022-11-26T01:52:05.943Z,91.65
2022-11-26T01:54:33.411Z,75.25
2022-11-26T01:57:24.271Z,84.10
2022-11-26T01:59:53.095Z,78.78
2022-11-26T02:02:22.288Z,91.38
2022-11-26T02:05:03.642Z,86.93
2022-11-26T02:07:30.172Z,85.88
2022-11-26T02:09:56.694Z,76.50
2022-11-26T02:12:23.155Z,81.50
2022-11-26T02:14:49.703Z,91.22
2022-11-26T02:17:52.712Z,91.78
2022-11-26T02:20:33.672Z,81.88
2022-11-26T02:23:21.276Z,83.03
2022-11-26T02:26:04.396Z,89.82
2022-11-26T02:28:58.820Z,84.18
2022-11-26T02:31:40.279Z,87.28
2022-11-26T02:34:14.542Z,92.10
2022-11-26T02:36:51.253Z,82.95
2022-11-26T02:39:22.981Z,102.43
2022-11-26T02:41:55.906Z,87.00
2022-11-26T02:44:24.533Z,95.13
2022-11-26T02:46:55.670Z,90.18
2022-11-26T02:49:22.469Z,98.63
2022-11-26T02:51:53.331Z,83.13
2022-11-26T02:54:20.260Z,96.20
2022-11-26T02:56:46.921Z,89.70
2022-11-26T02:59:14.970Z,99.25
2022-11-26T03:01:45.442Z,93.50
2022-11-26T03:04:16.995Z,99.75
2022-11-26T03:06:44.053Z,99.53
2022-11-26T03:09:10.461Z,98.68
2022-11-26T03:11:36.912Z,91.20
2022-11-26T03:14:03.468Z,101.72
2022-11-26T03:16:30.259Z,100.00
2022-11-26T03:18:56.730Z,90.15
2022-11-26T03:21:23.153Z,93.88
2022-11-26T03:23:49.628Z,97.20
2022-11-26T03:26:16.089Z,93.53
2022-11-26T03:28:42.472Z,96.40
2022-11-26T03:31:08.934Z,100.20
2022-11-26T03:33:35.388Z,100.45
2022-11-26T03:36:01.784Z,89.28
2022-11-26T03:38:28.204Z,95.00
2022-11-26T03:40:59.066Z,96.35
2022-11-26T03:43:25.528Z,92.82
2022-11-26T03:45:52.031Z,87.68
2022-11-26T03:48:18.533Z,88.45
2022-11-26T03:50:44.984Z,86.72
2022-11-26T03:53:11.520Z,82.70
2022-11-26T03:55:37.972Z,79.82
2022-11-26T03:58:04.473Z,72.88
2022-11-26T04:00:30.835Z,75.65
2022-11-26T04:02:57.263Z,78.80
2022-11-26T04:05:23.729Z,84.72
2022-11-26T04:07:50.206Z,87.28
2022-11-26T04:10:16.825Z,76.57
2022-11-26T04:12:43.230Z,72.43
2022-11-26T04:15:10.122Z,85.15
2022-11-26T04:17:36.525Z,88.25
2022-11-26T04:20:03.034Z,89.78
2022-11-26T04:22:29.433Z,83.45
2022-11-26T04:24:55.895Z,87.28
2022-11-26T04:27:22.386Z,86.72
2022-11-26T04:29:48.832Z,76.47
2022-11-26T04:32:15.210Z,86.88
2022-11-26T04:34:41.618Z,70.90
2022-11-26T04:37:08.003Z,89.90
2022-11-26T04:39:34.435Z,78.22
2022-11-26T04:42:00.896Z,80.85
2022-11-26T04:44:27.309Z,87.60
2022-11-26T04:46:53.725Z,95.88
2022-11-26T04:49:20.124Z,87.45
2022-11-26T04:51:46.509Z,116.13
2022-11-26T04:54:13.459Z,93.55
2022-11-26T04:56:40.038Z,87.90
2022-11-26T04:59:06.428Z,95.80
2022-11-26T05:01:32.902Z,86.95
2022-11-26T05:03:59.388Z,89.30
2022-11-26T05:06:25.866Z,99.32
2022-11-26T05:08:52.324Z,86.38
2022-11-26T05:11:18.763Z,108.22
2022-11-26T05:13:45.153Z,100.88
2022-11-26T05:16:11.587Z,96.63
2022-11-26T05:18:38.073Z,107.40
2022-11-26T05:21:07.330Z,88.35
2022-11-26T05:23:33.726Z,86.63
2022-11-26T05:26:00.250Z,95.00
2022-11-26T05:28:26.602Z,91.47
2022-11-26T05:31:03.153Z,87.70
2022-11-26T05:33:29.554Z,108.13
2022-11-26T05:35:55.934Z,104.72
2022-11-26T05:38:22.578Z,97.18
2022-11-26T05:40:49.106Z,109.53
2022-11-26T05:43:15.487Z,132.10
2022-11-26T05:45:42.016Z,121.43
2022-11-26T05:48:08.432Z,140.50
2022-11-26T05:50:35.115Z,119.45
2022-11-26T05:53:01.613Z,124.00
2022-11-26T05:55:28.110Z,116.63
2022-11-26T05:57:54.537Z,116.75
2022-11-26T06:00:21.142Z,118.28
2022-11-26T06:02:47.640Z,118.63
2022-11-26T06:05:14.625Z,113.05
2022-11-26T06:07:44.679Z,91.68
2022-11-26T06:10:12.422Z,125.85
2022-11-26T06:12:38.817Z,116.88
2022-11-26T06:15:05.827Z,119.22
2022-11-26T06:17:35.195Z,132.30
2022-11-26T06:20:01.642Z,121.82
2022-11-26T06:22:28.042Z,151.05
2022-11-26T06:24:54.465Z,126.35
2022-11-26T06:27:20.858Z,124.78
2022-11-26T06:29:47.261Z,151.95
2022-11-26T06:32:13.793Z,150.23
2022-11-26T06:34:42.591Z,166.75
2022-11-26T06:37:10.483Z,143.48
2022-11-26T06:39:36.889Z,129.70
2022-11-26T06:42:03.299Z,169.57
2022-11-26T06:44:29.749Z,147.48
2022-11-26T06:46:56.104Z,135.07
2022-11-26T06:49:22.546Z,166.63
2022-11-26T06:51:48.947Z,160.32
2022-11-26T06:54:15.315Z,147.88
2022-11-26T06:56:41.729Z,145.43
2022-11-26T06:59:08.093Z,150.68
2022-11-26T07:01:34.535Z,150.45
2022-11-26T07:04:01.209Z,167.65
2022-11-26T07:06:30.577Z,172.45
2022-11-26T07:08:58.839Z,155.18
2022-11-26T07:11:25.903Z,148.52
2022-11-26T07:13:52.446Z,188.50
2022-11-26T07:16:18.841Z,157.02
2022-11-26T07:18:57.765Z,190.07
2022-11-26T07:21:28.080Z,187.27
2022-11-26T07:23:54.849Z,191.07
2022-11-26T07:26:22.178Z,179.07
2022-11-26T07:28:49.070Z,203.93
2022-11-26T07:31:18.199Z,208.23
2022-11-26T07:33:45.603Z,198.98
2022-11-26T07:36:24.189Z,195.30
2022-11-26T07:38:50.897Z,204.73
2022-11-26T07:41:19.168Z,215.90
2022-11-26T07:43:46.364Z,228.43
2022-11-26T07:46:15.528Z,185.77
2022-11-26T07:48:41.971Z,218.90
2022-11-26T07:51:16.140Z,215.02
2022-11-26T07:53:42.545Z,187.10
2022-11-26T07:56:08.933Z,207.68
2022-11-26T07:58:35.513Z,222.02
2022-11-26T08:01:09.062Z,218.23
2022-11-26T08:03:43.583Z,211.23
2022-11-26T08:06:12.781Z,212.60
2022-11-26T08:08:39.606Z,215.77
2022-11-26T08:11:18.531Z,228.10
2022-11-26T08:13:45.530Z,219.10
2022-11-26T08:16:12.769Z,230.70
2022-11-26T08:18:39.777Z,241.70
2022-11-26T08:21:06.870Z,222.27
2022-11-26T08:23:33.679Z,233.52
2022-11-26T08:26:23.926Z,231.45
2022-11-26T08:28:52.322Z,221.38
2022-11-26T08:31:19.617Z,215.98
2022-11-26T08:33:46.541Z,221.55
2022-11-26T08:36:13.111Z,209.35
2022-11-26T08:38:39.576Z,218.77
2022-11-26T08:41:08.355Z,202.68
2022-11-26T08:44:04.739Z,192.98
2022-11-26T08:46:22.737Z,194.75
2022-11-26T08:48:51.684Z,203.75
2022-11-26T08:51:18.068Z,196.15
2022-11-26T08:53:45.819Z,189.68
2022-11-26T08:56:13.393Z,202.05
2022-11-26T08:58:41.722Z,192.43
2022-11-26T09:01:10.283Z,202.38
2022-11-26T09:03:36.998Z,190.05
2022-11-26T09:06:04.703Z,183.30
2022-11-26T09:08:44.638Z,179.32
2022-11-26T09:11:12.133Z,170.32
2022-11-26T09:13:38.528Z,159.73
2022-11-26T09:16:05.258Z,161.68
2022-11-26T09:18:31.805Z,152.75
2022-11-26T09:21:02.397Z,144.65
2022-11-26T09:23:28.973Z,155.23
2022-11-26T09:25:55.388Z,147.80
2022-11-26T09:28:21.857Z,145.95
2022-11-26T09:30:49.213Z,148.55
2022-11-26T09:33:15.611Z,127.55
2022-11-26T09:35:42.072Z,133.25
2022-11-26T09:38:08.517Z,122.82
2022-11-26T09:40:57.409Z,135.13
2022-11-26T09:43:29.765Z,129.45
2022-11-26T09:45:59.419Z,144.82
2022-11-26T09:48:29.088Z,134.52
2022-11-26T09:51:01.930Z,129.13
2022-11-26T09:53:32.342Z,132.18
2022-11-26T09:56:00.216Z,131.18
2022-11-26T09:58:51.587Z,127.15
2022-11-26T10:01:21.129Z,113.43
2022-11-26T10:03:48.021Z,119.90
2022-11-26T10:06:36.267Z,108.35
2022-11-26T10:09:26.242Z,116.50
2022-11-26T10:12:25.639Z,115.10
2022-11-26T10:15:03.997Z,103.82
2022-11-26T10:17:58.527Z,93.25
2022-11-26T10:21:09.942Z,88.63
2022-11-26T10:23:50.465Z,87.97
2022-11-26T10:26:28.063Z,82.43
2022-11-26T10:29:16.224Z,82.85
2022-11-26T10:31:45.473Z,80.80
2022-11-26T10:34:21.895Z,81.38
2022-11-26T10:36:48.452Z,73.35
2022-11-26T10:39:18.283Z,57.88
2022-11-26T10:41:45.333Z,66.28
2022-11-26T10:44:40.353Z,64.03
2022-11-26T10:47:32.795Z,62.00
2022-11-26T10:50:25.087Z,53.35
2022-11-26T10:52:52.372Z,61.10
2022-11-26T10:55:27.773Z,52.38
2022-11-26T10:58:21.771Z,58.08
2022-11-26T11:00:48.168Z,57.65
2022-11-26T11:03:33.216Z,49.92
2022-11-26T11:06:10.672Z,56.05
2022-11-26T11:08:37.159Z,54.50
2022-11-26T11:11:04.706Z,56.58
2022-11-26T11:13:44.430Z,56.47
2022-11-26T11:16:12.259Z,52.05
2022-11-26T11:18:48.259Z,50.92
2022-11-26T11:21:16.462Z,49.28
2022-11-26T11:26:40.226Z,48.55
2022-11-26T11:29:24.493Z,44.10
2022-11-26T11:31:51.027Z,47.00
2022-11-26T11:34:23.155Z,45.80
2022-11-26T11:37:21.798Z,47.25
2022-11-26T11:40:06.863Z,41.53
2022-11-26T11:42:33.504Z,45.90
2022-11-26T11:45:00.692Z,40.92
2022-11-26T11:47:34.325Z,51.22
2022-11-26T11:50:19.469Z,39.88
2022-11-26T11:53:01.237Z,42.05
2022-11-26T11:55:42.889Z,44.38
2022-11-26T11:58:27.555Z,45.38
2022-11-26T12:01:00.137Z,42.28
2022-11-26T12:06:45.788Z,40.90
2022-11-26T12:09:20.686Z,43.58
2022-11-26T12:12:04.961Z,38.30
2022-11-26T12:15:06.858Z,39.08
2022-11-26T12:18:18.221Z,45.95
2022-11-26T12:20:47.844Z,47.72
2022-11-26T12:23:43.518Z,51.45
2022-11-26T12:26:23.476Z,39.60
2022-11-26T12:29:00.119Z,47.00
2022-11-26T12:31:35.403Z,44.78
2022-11-26T12:34:21.231Z,35.90
2022-11-26T12:36:57.874Z,37.95
2022-11-26T12:39:31.161Z,36.72
2022-11-26T12:42:22.365Z,38.58
2022-11-26T12:44:51.692Z,38.50
2022-11-26T12:47:26.578Z,42.78
2022-11-26T12:50:00.283Z,40.17
2022-11-26T12:53:01.080Z,43.55
2022-11-26T12:55:36.218Z,33.58
2022-11-26T12:58:27.133Z,37.53
2022-11-26T13:00:54.830Z,35.70
2022-11-26T13:03:27.719Z,37.50
2022-11-26T13:06:06.212Z,38.65
2022-11-26T13:09:08.200Z,38.58
2022-11-26T13:12:00.880Z,34.95
2022-11-26T13:14:53.332Z,33.00
2022-11-26T13:17:23.779Z,42.67
2022-11-26T13:19:58.630Z,33.95
2022-11-26T13:22:34.183Z,38.65
2022-11-26T13:25:28.452Z,36.88
2022-11-26T13:28:20.037Z,36.75
2022-11-26T13:30:52.576Z,34.80
2022-11-26T13:36:17.606Z,35.00
2022-11-26T13:38:56.643Z,34.25
2022-11-26T13:41:55.764Z,37.88
2022-11-26T13:44:33.973Z,40.58
2022-11-26T13:47:13.225Z,37.70
2022-11-26T13:49:46.517Z,34.60
2022-11-26T13:52:29.516Z,30.02
2022-11-26T13:55:19.099Z,38.47
2022-11-26T13:57:47.935Z,32.33
2022-11-26T14:00:24.760Z,34.83
2022-11-26T14:02:51.220Z,37.17
2022-11-26T14:05:17.711Z,36.72
2022-11-26T14:07:45.414Z,36.60
2022-11-26T14:10:40.658Z,34.55
2022-11-26T14:13:11.476Z,34.45
2022-11-26T14:15:40.599Z,42.97
2022-11-26T14:18:08.868Z,41.20
2022-11-26T14:20:57.071Z,37.47
2022-11-26T14:23:44.344Z,37.35
2022-11-26T14:26:14.170Z,36.60
2022-11-26T14:28:40.890Z,35.50
2022-11-26T14:31:24.587Z,34.20
2022-11-26T14:33:53.047Z,42.97
2022-11-26T14:36:21.563Z,34.58
2022-11-26T14:39:04.624Z,34.55
2022-11-26T14:41:36.825Z,35.25
2022-11-26T14:44:07.318Z,35.63
2022-11-26T14:46:34.076Z,41.88
2022-11-26T14:49:00.832Z,38.47
2022-11-26T14:51:27.680Z,34.30
2022-11-26T14:53:55.277Z,35.22
2022-11-26T14:56:23.918Z,35.50
2022-11-26T14:58:56.417Z,39.95
2022-11-26T15:04:01.600Z,36.38
2022-11-26T15:06:37.999Z,36.80
2022-11-26T15:09:12.588Z,36.75
2022-11-26T15:11:42.905Z,39.90
2022-11-26T15:14:20.549Z,36.42
2022-11-26T15:16:54.224Z,32.90
2022-11-26T15:19:21.066Z,33.13
2022-11-26T15:21:48.023Z,28.90
2022-11-26T15:24:14.954Z,31.00
2022-11-26T15:26:45.608Z,30.15
2022-11-26T15:29:33.989Z,27.17
2022-11-26T15:32:00.632Z,29.65
2022-11-26T15:34:27.716Z,29.02
2022-11-26T15:36:54.260Z,28.45
2022-11-26T15:39:29.956Z,34.45
2022-11-26T15:42:02.404Z,32.83
2022-11-26T15:44:29.951Z,28.13
2022-11-26T15:46:57.309Z,25.92
2022-11-26T15:49:29.283Z,26.35
2022-11-26T15:52:08.810Z,28.17
2022-11-26T15:57:38.019Z,29.50
2022-11-26T16:00:08.244Z,24.13
2022-11-26T16:02:34.937Z,33.35
2022-11-26T16:05:03.228Z,27.88
2022-11-26T16:07:31.615Z,24.20
2022-11-26T16:10:16.396Z,24.23
2022-11-26T16:12:45.028Z,24.55
2022-11-26T16:15:17.897Z,26.50
2022-11-26T16:17:44.984Z,27.02
2022-11-26T16:20:23.332Z,26.83
2022-11-26T16:22:59.343Z,29.95
2022-11-26T16:25:30.835Z,25.42
2022-11-26T16:28:04.873Z,26.80
2022-11-26T16:30:31.305Z,25.77
2022-11-26T16:32:57.906Z,25.25
2022-11-26T16:35:45.186Z,25.30
2022-11-26T16:38:21.293Z,26.65
2022-11-26T16:40:47.810Z,25.83
2022-11-26T16:43:14.319Z,21.77
2022-11-26T16:45:41.022Z,21.55
2022-11-26T16:48:17.381Z,32.42
2022-11-26T16:50:43.771Z,26.55
2022-11-26T16:53:10.204Z,22.45
2022-11-26T16:55:36.902Z,22.30
2022-11-26T16:58:04.515Z,22.27
2022-11-26T17:00:31.629Z,22.08
2022-11-26T17:02:58.182Z,24.00
2022-11-26T17:05:24.750Z,22.92
2022-11-26T17:07:56.480Z,23.25
2022-11-26T17:10:26.676Z,19.05
2022-11-26T17:12:53.246Z,22.48
2022-11-26T17:15:19.665Z,19.73
2022-11-26T17:17:46.346Z,22.27
2022-11-26T17:20:18.550Z,28.08
2022-11-26T17:22:45.603Z,16.98
2022-11-26T17:25:13.000Z,19.45
2022-11-26T17:27:40.584Z,18.67
2022-11-26T17:30:08.235Z,24.77
2022-11-26T17:32:34.835Z,17.92
2022-11-26T17:35:01.208Z,20.13
2022-11-26T17:37:28.891Z,22.63
2022-11-26T17:39:55.985Z,17.30
2022-11-26T17:42:23.820Z,19.83
2022-11-26T17:44:51.134Z,21.98
2022-11-26T17:47:20.892Z,22.25
2022-11-26T17:49:47.613Z,22.77
2022-11-26T17:52:14.746Z,17.10
2022-11-26T17:54:41.179Z,23.65
2022-11-26T17:57:07.662Z,20.20
2022-11-26T17:59:34.201Z,26.25
2022-11-26T18:02:02.435Z,22.60
2022-11-26T18:04:29.269Z,19.70
2022-11-26T18:07:10.067Z,17.27
2022-11-26T18:09:36.587Z,17.88
2022-11-26T18:12:04.033Z,16.42
2022-11-26T18:14:30.535Z,21.10
2022-11-26T18:16:56.930Z,21.35
2022-11-26T18:19:24.127Z,17.73
2022-11-26T18:21:51.161Z,17.25
2022-11-26T18:24:17.856Z,25.70
2022-11-26T18:26:44.314Z,15.93
2022-11-26T18:29:11.193Z,21.70
2022-11-26T18:31:39.738Z,21.65
2022-11-26T18:34:07.265Z,20.77
2022-11-26T18:36:33.666Z,20.63
2022-11-26T18:39:00.042Z,19.45
2022-11-26T18:41:26.573Z,18.65
2022-11-26T18:43:52.996Z,22.60
2022-11-26T18:46:19.481Z,18.38
2022-11-26T18:48:47.998Z,19.95
2022-11-26T18:51:15.333Z,15.93
2022-11-26T18:53:42.511Z,19.90
2022-11-26T18:56:10.805Z,16.00
2022-11-26T18:58:37.514Z,20.50
2022-11-26T19:01:14.865Z,20.27
2022-11-26T19:03:44.059Z,15.80
2022-11-26T19:06:15.048Z,21.48
2022-11-26T19:08:41.974Z,19.48
2022-11-26T19:11:13.724Z,21.42
2022-11-26T19:13:40.158Z,22.55
2022-11-26T19:16:16.862Z,22.30
2022-11-26T19:18:44.352Z,17.50
2022-11-26T19:21:18.440Z,14.07
2022-11-26T19:23:44.830Z,15.55
2022-11-26T19:26:11.339Z,19.70
2022-11-26T19:28:37.705Z,25.98
2022-11-26T19:31:06.819Z,21.00
2022-11-26T19:33:33.542Z,17.08
2022-11-26T19:36:04.730Z,24.13
2022-11-26T19:38:31.111Z,18.70
2022-11-26T19:40:58.662Z,22.63
2022-11-26T19:43:26.251Z,20.80
2022-11-26T19:46:00.575Z,24.60
2022-11-26T19:48:27.452Z,21.83
2022-11-26T19:50:57.709Z,24.60
2022-11-26T19:53:24.456Z,23.27
2022-11-26T19:55:56.105Z,20.27
2022-11-26T19:58:22.703Z,19.63
2022-11-26T20:00:49.112Z,18.90
2022-11-26T20:03:15.582Z,21.77
2022-11-26T20:05:42.327Z,21.77
2022-11-26T20:08:08.742Z,21.60
2022-11-26T20:10:37.371Z,27.25
2022-11-26T20:13:07.468Z,20.98
2022-11-26T20:15:42.028Z,18.90
2022-11-26T20:18:09.200Z,20.90
2022-11-26T20:20:36.596Z,26.13
2022-11-26T20:23:04.061Z,19.13
2022-11-26T20:25:34.650Z,22.58
2022-11-26T20:28:03.832Z,19.75
2022-11-26T20:30:30.916Z,17.35
2022-11-26T20:32:57.390Z,20.80
2022-11-26T20:35:23.818Z,15.43
2022-11-26T20:37:50.947Z,20.50
2022-11-26T20:40:17.771Z,18.98
2022-11-26T20:42:46.040Z,19.80
2022-11-26T20:45:13.440Z,20.17
2022-11-26T20:47:40.379Z,22.45
2022-11-26T20:50:08.143Z,15.68
2022-11-26T20:52:34.765Z,19.08
2022-11-26T20:55:01.276Z,17.55
2022-11-26T20:57:27.754Z,20.77
2022-11-26T20:59:54.115Z,17.77
2022-11-26T21:02:20.676Z,17.30
2022-11-26T21:04:47.139Z,17.63
2022-11-26T21:07:13.611Z,22.45
2022-11-26T21:09:40.483Z,15.88
2022-11-26T21:12:07.160Z,26.08
2022-11-26T21:14:33.547Z,15.85
2022-11-26T21:17:00.075Z,16.20
2022-11-26T21:19:26.536Z,22.35
2022-11-26T21:21:52.944Z,17.65
2022-11-26T21:24:20.357Z,21.90
2022-11-26T21:26:46.846Z,23.67
2022-11-26T21:29:13.392Z,25.02
2022-11-26T21:31:39.883Z,18.77
2022-11-26T21:34:07.834Z,19.95
2022-11-26T21:36:35.778Z,20.25
2022-11-26T21:39:02.775Z,18.85
2022-11-26T21:41:29.196Z,20.77
2022-11-26T21:43:55.733Z,17.52
2022-11-26T21:46:26.507Z,19.83
2022-11-26T21:48:53.979Z,15.50
2022-11-26T21:51:20.724Z,21.08
2022-11-26T21:53:49.497Z,18.15
2022-11-26T21:56:18.610Z,19.17
2022-11-26T21:58:45.542Z,20.58
2022-11-26T22:01:16.562Z,21.05
2022-11-26T22:03:45.102Z,20.70
2022-11-26T22:06:12.328Z,21.27
2022-11-26T22:08:39.101Z,17.95
2022-11-26T22:11:14.282Z,21.95
2022-11-26T22:13:41.188Z,19.05
2022-11-26T22:16:09.857Z,19.05
2022-11-26T22:18:38.264Z,19.30
2022-11-26T22:21:20.979Z,17.10
2022-11-26T22:26:13.779Z,22.05
2022-11-26T22:28:40.311Z,22.50
2022-11-26T22:31:27.055Z,26.05
2022-11-26T22:33:55.870Z,23.35
2022-11-26T22:36:22.355Z,22.85
2022-11-26T22:38:48.805Z,25.30
2022-11-26T22:41:15.876Z,23.35
2022-11-26T22:43:42.668Z,21.60
2022-11-26T22:46:14.770Z,23.33
2022-11-26T22:48:42.066Z,24.10
2022-11-26T22:51:09.252Z,26.83
2022-11-26T22:53:36.481Z,26.95
2022-11-26T22:56:03.967Z,30.17
2022-11-26T22:58:31.069Z,30.38
2022-11-26T23:01:00.500Z,29.88
2022-11-26T23:03:28.752Z,31.17
2022-11-26T23:05:55.702Z,34.10
2022-11-26T23:08:22.613Z,34.95
2022-11-26T23:10:49.078Z,35.53
2022-11-26T23:13:16.154Z,35.05
2022-11-26T23:15:44.968Z,36.38
2022-11-26T23:18:13.103Z,34.67
2022-11-26T23:20:39.499Z,34.13
2022-11-26T23:23:06.225Z,33.08
2022-11-26T23:25:32.802Z,33.33
2022-11-26T23:27:59.205Z,44.40
2022-11-26T23:30:25.702Z,42.25
2022-11-26T23:32:52.348Z,42.95
2022-11-26T23:35:18.719Z,38.33
2022-11-26T23:37:45.340Z,40.97
2022-11-26T23:40:13.239Z,44.50
2022-11-26T23:42:39.884Z,44.38
2022-11-26T23:45:06.893Z,46.25
2022-11-26T23:47:35.310Z,44.58
2022-11-26T23:50:02.733Z,48.17
2022-11-26T23:52:29.152Z,52.05
2022-11-26T23:54:55.585Z,48.63
2022-11-26T23:57:21.948Z,52.20
2022-11-26T23:59:48.348Z,48.97
